sensor_id;sensor_type;location;lat;lon;timestamp;pressure;altitude;pressure_sealevel;temperature;humidity
1832;BME280;1680;48.106;11.708;2023-08-17T00:00:24;95628.00;;;19.74;100.00
1832;BME280;1680;48.106;11.708;2023-08-17T00:02:52;95623.97;;;19.82;100.00
1832;BME280;1680;48.106;11.708;2023-08-17T00:05:19;95615.19;;;19.81;100.00
1832;BME280;1680;48.106;11.708;2023-08-17T00:07:46;95618.44;;;19.73;100.00
1832;BME280;1680;48.106;11.708;2023-08-17T00:10:15;95611.53;;;19.72;100.00
1832;BME280;1680;48.106;11.708;2023-08-17T00:12:42;95607.28;;;19.71;100.00
1832;BME280;1680;48.106;11.708;2023-08-17T00:15:09;95620.72;;;19.90;100.00
1832;BME280;1680;48.106;11.708;2023-08-17T00:17:37;95626.31;;;19.88;100.00
1832;BME280;1680;48.106;11.708;2023-08-17T00:20:05;95627.16;;;19.84;100.00
1832;BME280;1680;48.106;11.708;2023-08-17T00:22:35;95629.13;;;19.68;100.00
1832;BME280;1680;48.106;11.708;2023-08-17T00:25:02;95622.78;;;19.59;100.00
1832;BME280;1680;48.106;11.708;2023-08-17T00:27:31;95608.25;;;19.47;100.00
1832;BME280;1680;48.106;11.708;2023-08-17T00:29:59;95610.13;;;19.42;100.00
1832;BME280;1680;48.106;11.708;2023-08-17T00:32:26;95617.59;;;19.40;100.00
1832;BME280;1680;48.106;11.708;2023-08-17T00:34:53;95623.94;;;19.44;100.00
1832;BME280;1680;48.106;11.708;2023-08-17T00:37:20;95610.13;;;19.42;100.00
1832;BME280;1680;48.106;11.708;2023-08-17T00:39:47;95622.09;;;19.44;100.00
1832;BME280;1680;48.106;11.708;2023-08-17T00:42:14;95615.88;;;19.58;100.00
1832;BME280;1680;48.106;11.708;2023-08-17T00:44:43;95619.38;;;19.54;100.00
1832;BME280;1680;48.106;11.708;2023-08-17T00:47:10;95590.59;;;19.18;100.00
1832;BME280;1680;48.106;11.708;2023-08-17T00:49:37;95624.78;;;19.34;100.00
1832;BME280;1680;48.106;11.708;2023-08-17T00:52:05;95621.34;;;19.34;100.00
1832;BME280;1680;48.106;11.708;2023-08-17T00:54:32;95622.66;;;19.36;100.00
1832;BME280;1680;48.106;11.708;2023-08-17T00:57:00;95629.53;;;19.47;100.00
1832;BME280;1680;48.106;11.708;2023-08-17T00:59:29;95631.16;;;19.38;100.00
1832;BME280;1680;48.106;11.708;2023-08-17T01:01:57;95624.44;;;19.51;100.00
1832;BME280;1680;48.106;11.708;2023-08-17T01:04:24;95625.00;;;19.48;100.00
1832;BME280;1680;48.106;11.708;2023-08-17T01:06:52;95618.59;;;19.49;100.00
1832;BME280;1680;48.106;11.708;2023-08-17T01:09:19;95618.09;;;19.47;100.00
1832;BME280;1680;48.106;11.708;2023-08-17T01:11:49;95607.75;;;19.40;100.00
1832;BME280;1680;48.106;11.708;2023-08-17T01:14:27;95628.25;;;19.40;100.00
1832;BME280;1680;48.106;11.708;2023-08-17T01:17:03;95629.81;;;19.41;100.00
1832;BME280;1680;48.106;11.708;2023-08-17T01:19:32;95625.84;;;19.33;100.00
1832;BME280;1680;48.106;11.708;2023-08-17T01:22:03;95610.47;;;19.30;100.00
1832;BME280;1680;48.106;11.708;2023-08-17T01:24:36;95632.47;;;19.41;100.00
1832;BME280;1680;48.106;11.708;2023-08-17T01:27:03;95629.13;;;19.20;100.00
1832;BME280;1680;48.106;11.708;2023-08-17T01:29:31;95608.47;;;18.97;100.00
1832;BME280;1680;48.106;11.708;2023-08-17T01:32:04;95612.41;;;19.05;100.00
1832;BME280;1680;48.106;11.708;2023-08-17T01:34:39;95630.41;;;19.33;100.00
1832;BME280;1680;48.106;11.708;2023-08-17T01:37:08;95631.25;;;19.18;100.00
1832;BME280;1680;48.106;11.708;2023-08-17T01:39:43;95627.31;;;19.06;100.00
1832;BME280;1680;48.106;11.708;2023-08-17T01:42:12;95636.41;;;18.95;100.00
1832;BME280;1680;48.106;11.708;2023-08-17T01:44:39;95613.78;;;18.97;100.00
1832;BME280;1680;48.106;11.708;2023-08-17T01:47:07;95622.00;;;19.06;100.00
1832;BME280;1680;48.106;11.708;2023-08-17T01:49:34;95623.59;;;19.02;100.00
1832;BME280;1680;48.106;11.708;2023-08-17T01:52:02;95597.06;;;18.87;100.00
1832;BME280;1680;48.106;11.708;2023-08-17T01:54:29;95620.66;;;19.03;100.00
1832;BME280;1680;48.106;11.708;2023-08-17T01:56:57;95600.31;;;18.79;100.00
1832;BME280;1680;48.106;11.708;2023-08-17T01:59:24;95615.34;;;19.03;100.00
1832;BME280;1680;48.106;11.708;2023-08-17T02:01:52;95618.78;;;19.14;100.00
1832;BME280;1680;48.106;11.708;2023-08-17T02:04:19;95608.72;;;19.01;100.00
1832;BME280;1680;48.106;11.708;2023-08-17T02:06:46;95602.63;;;18.90;100.00
1832;BME280;1680;48.106;11.708;2023-08-17T02:09:13;95600.19;;;18.99;100.00
1832;BME280;1680;48.106;11.708;2023-08-17T02:11:40;95594.09;;;18.98;100.00
1832;BME280;1680;48.106;11.708;2023-08-17T02:14:09;95598.59;;;18.98;100.00
1832;BME280;1680;48.106;11.708;2023-08-17T02:16:36;95599.13;;;19.00;100.00
1832;BME280;1680;48.106;11.708;2023-08-17T02:19:03;95597.66;;;18.79;100.00
1832;BME280;1680;48.106;11.708;2023-08-17T02:21:30;95588.03;;;18.88;100.00
1832;BME280;1680;48.106;11.708;2023-08-17T02:23:57;95591.81;;;18.72;100.00
1832;BME280;1680;48.106;11.708;2023-08-17T02:26:25;95582.03;;;18.57;100.00
1832;BME280;1680;48.106;11.708;2023-08-17T02:28:52;95586.00;;;18.65;100.00
1832;BME280;1680;48.106;11.708;2023-08-17T02:31:20;95558.13;;;18.52;100.00
1832;BME280;1680;48.106;11.708;2023-08-17T02:33:47;95583.06;;;18.71;100.00
1832;BME280;1680;48.106;11.708;2023-08-17T02:36:14;95580.88;;;18.78;100.00
1832;BME280;1680;48.106;11.708;2023-08-17T02:38:42;95578.47;;;18.82;100.00
1832;BME280;1680;48.106;11.708;2023-08-17T02:41:09;95577.41;;;18.88;100.00
1832;BME280;1680;48.106;11.708;2023-08-17T02:43:36;95578.53;;;18.72;100.00
1832;BME280;1680;48.106;11.708;2023-08-17T02:46:03;95579.06;;;18.69;100.00
1832;BME280;1680;48.106;11.708;2023-08-17T02:48:33;95572.97;;;18.58;100.00
1832;BME280;1680;48.106;11.708;2023-08-17T02:51:00;95565.28;;;18.62;100.00
1832;BME280;1680;48.106;11.708;2023-08-17T02:53:28;95578.53;;;18.72;100.00
1832;BME280;1680;48.106;11.708;2023-08-17T02:55:55;95574.56;;;18.69;100.00
1832;BME280;1680;48.106;11.708;2023-08-17T02:58:22;95583.53;;;18.78;100.00
1832;BME280;1680;48.106;11.708;2023-08-17T03:00:50;95583.84;;;18.72;100.00
1832;BME280;1680;48.106;11.708;2023-08-17T03:03:19;95583.84;;;18.67;100.00
1832;BME280;1680;48.106;11.708;2023-08-17T03:05:47;95580.34;;;18.76;100.00
1832;BME280;1680;48.106;11.708;2023-08-17T03:08:14;95582.78;;;18.68;100.00
1832;BME280;1680;48.106;11.708;2023-08-17T03:10:41;95584.94;;;18.51;100.00
1832;BME280;1680;48.106;11.708;2023-08-17T03:13:08;95579.13;;;18.49;100.00
1832;BME280;1680;48.106;11.708;2023-08-17T03:15:36;95582.28;;;18.51;100.00
1832;BME280;1680;48.106;11.708;2023-08-17T03:18:05;95579.69;;;18.46;100.00
1832;BME280;1680;48.106;11.708;2023-08-17T03:20:32;95591.06;;;18.47;100.00
1832;BME280;1680;48.106;11.708;2023-08-17T03:23:01;95591.84;;;18.57;100.00
1832;BME280;1680;48.106;11.708;2023-08-17T03:25:31;95594.75;;;18.65;100.00
1832;BME280;1680;48.106;11.708;2023-08-17T03:27:58;95584.47;;;18.39;100.00
1832;BME280;1680;48.106;11.708;2023-08-17T03:30:26;95588.66;;;18.55;100.00
1832;BME280;1680;48.106;11.708;2023-08-17T03:32:53;95599.53;;;18.63;100.00
1832;BME280;1680;48.106;11.708;2023-08-17T03:35:20;95587.88;;;18.54;100.00
1832;BME280;1680;48.106;11.708;2023-08-17T03:37:47;95590.25;;;18.51;100.00
1832;BME280;1680;48.106;11.708;2023-08-17T03:40:16;95588.16;;;18.43;100.00
1832;BME280;1680;48.106;11.708;2023-08-17T03:42:43;95597.19;;;18.47;100.00
1832;BME280;1680;48.106;11.708;2023-08-17T03:45:10;95604.09;;;18.48;100.00
1832;BME280;1680;48.106;11.708;2023-08-17T03:47:37;95611.78;;;18.45;100.00
1832;BME280;1680;48.106;11.708;2023-08-17T03:50:05;95606.47;;;18.45;100.00
1832;BME280;1680;48.106;11.708;2023-08-17T03:52:32;95610.75;;;18.36;100.00
1832;BME280;1680;48.106;11.708;2023-08-17T03:54:59;95606.75;;;18.43;100.00
1832;BME280;1680;48.106;11.708;2023-08-17T03:57:28;95608.84;;;18.51;100.00
1832;BME280;1680;48.106;11.708;2023-08-17T03:59:55;95589.19;;;18.52;100.00
1832;BME280;1680;48.106;11.708;2023-08-17T04:02:22;95605.41;;;18.55;100.00
1832;BME280;1680;48.106;11.708;2023-08-17T04:04:49;95604.88;;;18.44;100.00
1832;BME280;1680;48.106;11.708;2023-08-17T04:07:20;95586.34;;;18.29;100.00
1832;BME280;1680;48.106;11.708;2023-08-17T04:09:48;95612.59;;;18.40;100.00
1832;BME280;1680;48.106;11.708;2023-08-17T04:12:15;95575.19;;;18.17;100.00
1832;BME280;1680;48.106;11.708;2023-08-17T04:14:44;95610.22;;;18.29;100.00
1832;BME280;1680;48.106;11.708;2023-08-17T04:17:11;95615.53;;;18.34;100.00
1832;BME280;1680;48.106;11.708;2023-08-17T04:19:38;95577.56;;;18.08;100.00
1832;BME280;1680;48.106;11.708;2023-08-17T04:22:05;95623.78;;;18.17;100.00
1832;BME280;1680;48.106;11.708;2023-08-17T04:24:33;95625.63;;;18.22;100.00
1832;BME280;1680;48.106;11.708;2023-08-17T04:27:00;95622.19;;;18.31;100.00
1832;BME280;1680;48.106;11.708;2023-08-17T04:29:27;95607.59;;;18.09;100.00
1832;BME280;1680;48.106;11.708;2023-08-17T04:31:55;95626.16;;;18.09;100.00
1832;BME280;1680;48.106;11.708;2023-08-17T04:34:22;95613.13;;;18.07;100.00
1832;BME280;1680;48.106;11.708;2023-08-17T04:36:49;95631.75;;;18.17;100.00
1832;BME280;1680;48.106;11.708;2023-08-17T04:39:16;95632.78;;;18.06;100.00
1832;BME280;1680;48.106;11.708;2023-08-17T04:41:43;95632.00;;;17.96;100.00
1832;BME280;1680;48.106;11.708;2023-08-17T04:44:11;95639.69;;;18.02;100.00
1832;BME280;1680;48.106;11.708;2023-08-17T04:46:38;95636.78;;;18.09;100.00
1832;BME280;1680;48.106;11.708;2023-08-17T04:49:06;95640.22;;;18.14;100.00
1832;BME280;1680;48.106;11.708;2023-08-17T04:51:33;95636.53;;;18.25;100.00
1832;BME280;1680;48.106;11.708;2023-08-17T04:54:00;95631.75;;;18.17;100.00
1832;BME280;1680;48.106;11.708;2023-08-17T04:56:27;95635.19;;;18.13;100.00
1832;BME280;1680;48.106;11.708;2023-08-17T04:58:54;95629.63;;;18.24;100.00
1832;BME280;1680;48.106;11.708;2023-08-17T05:01:22;95638.41;;;18.25;100.00
1832;BME280;1680;48.106;11.708;2023-08-17T05:03:49;95639.19;;;18.35;100.00
1832;BME280;1680;48.106;11.708;2023-08-17T05:06:18;95651.66;;;18.35;100.00
1832;BME280;1680;48.106;11.708;2023-08-17T05:08:45;95649.53;;;18.37;100.00
1832;BME280;1680;48.106;11.708;2023-08-17T05:11:12;95642.34;;;18.42;100.00
1832;BME280;1680;48.106;11.708;2023-08-17T05:13:39;95649.50;;;18.47;100.00
1832;BME280;1680;48.106;11.708;2023-08-17T05:16:06;95650.84;;;18.49;100.00
1832;BME280;1680;48.106;11.708;2023-08-17T05:18:33;95645.50;;;18.54;100.00
1832;BME280;1680;48.106;11.708;2023-08-17T05:21:00;95648.41;;;18.72;100.00
1832;BME280;1680;48.106;11.708;2023-08-17T05:23:29;95650.25;;;18.77;100.00
1832;BME280;1680;48.106;11.708;2023-08-17T05:25:56;95648.63;;;18.81;100.00
1832;BME280;1680;48.106;11.708;2023-08-17T05:28:23;95647.81;;;18.95;100.00
1832;BME280;1680;48.106;11.708;2023-08-17T05:30:50;95649.09;;;19.03;100.00
1832;BME280;1680;48.106;11.708;2023-08-17T05:33:18;95652.00;;;19.11;100.00
1832;BME280;1680;48.106;11.708;2023-08-17T05:35:45;95653.34;;;19.19;100.00
1832;BME280;1680;48.106;11.708;2023-08-17T05:38:13;95649.06;;;19.23;100.00
1832;BME280;1680;48.106;11.708;2023-08-17T05:40:41;95628.38;;;19.05;100.00
1832;BME280;1680;48.106;11.708;2023-08-17T05:43:08;95647.41;;;19.32;100.00
1832;BME280;1680;48.106;11.708;2023-08-17T05:45:35;95652.97;;;19.35;100.00
1832;BME280;1680;48.106;11.708;2023-08-17T05:48:03;95657.47;;;19.45;100.00
1832;BME280;1680;48.106;11.708;2023-08-17T05:50:30;95660.34;;;19.53;100.00
1832;BME280;1680;48.106;11.708;2023-08-17T05:52:58;95653.88;;;19.64;100.00
1832;BME280;1680;48.106;11.708;2023-08-17T05:55:25;95652.28;;;19.68;100.00
1832;BME280;1680;48.106;11.708;2023-08-17T05:57:53;95653.03;;;19.73;100.00
1832;BME280;1680;48.106;11.708;2023-08-17T06:00:20;95650.31;;;19.83;100.00
1832;BME280;1680;48.106;11.708;2023-08-17T06:02:47;95640.22;;;19.80;100.00
1832;BME280;1680;48.106;11.708;2023-08-17T06:05:17;95654.75;;;20.03;100.00
1832;BME280;1680;48.106;11.708;2023-08-17T06:07:44;95629.47;;;19.95;100.00
1832;BME280;1680;48.106;11.708;2023-08-17T06:10:11;95659.13;;;20.22;100.00
1832;BME280;1680;48.106;11.708;2023-08-17T06:12:38;95662.25;;;20.29;100.00
1832;BME280;1680;48.106;11.708;2023-08-17T06:15:08;95662.50;;;20.33;100.00
1832;BME280;1680;48.106;11.708;2023-08-17T06:17:35;95649.25;;;20.23;100.00
1832;BME280;1680;48.106;11.708;2023-08-17T06:20:02;95650.44;;;20.40;100.00
1832;BME280;1680;48.106;11.708;2023-08-17T06:22:30;95661.41;;;20.62;100.00
1832;BME280;1680;48.106;11.708;2023-08-17T06:24:57;95664.78;;;20.72;100.00
1832;BME280;1680;48.106;11.708;2023-08-17T06:27:24;95668.06;;;20.93;100.00
1832;BME280;1680;48.106;11.708;2023-08-17T06:29:51;95668.69;;;21.08;100.00
1832;BME280;1680;48.106;11.708;2023-08-17T06:32:20;95661.88;;;21.21;100.00
1832;BME280;1680;48.106;11.708;2023-08-17T06:34:47;95668.19;;;21.30;100.00
1832;BME280;1680;48.106;11.708;2023-08-17T06:37:14;95667.44;;;21.48;100.00
1832;BME280;1680;48.106;11.708;2023-08-17T06:39:41;95667.44;;;21.48;100.00
1832;BME280;1680;48.106;11.708;2023-08-17T06:42:08;95675.28;;;21.62;100.00
1832;BME280;1680;48.106;11.708;2023-08-17T06:44:35;95679.53;;;21.63;100.00
1832;BME280;1680;48.106;11.708;2023-08-17T06:47:02;95673.38;;;21.81;100.00
1832;BME280;1680;48.106;11.708;2023-08-17T06:49:32;95669.56;;;21.87;100.00
1832;BME280;1680;48.106;11.708;2023-08-17T06:51:59;95672.59;;;21.99;100.00
1832;BME280;1680;48.106;11.708;2023-08-17T06:54:29;95676.69;;;22.10;100.00
1832;BME280;1680;48.106;11.708;2023-08-17T06:56:57;95679.63;;;22.27;100.00
1832;BME280;1680;48.106;11.708;2023-08-17T06:59:24;95680.63;;;22.36;100.00
1832;BME280;1680;48.106;11.708;2023-08-17T07:01:52;95687.75;;;22.41;100.00
1832;BME280;1680;48.106;11.708;2023-08-17T07:04:19;95679.88;;;22.62;100.00
1832;BME280;1680;48.106;11.708;2023-08-17T07:06:48;95657.47;;;22.45;100.00
1832;BME280;1680;48.106;11.708;2023-08-17T07:09:15;95681.50;;;22.77;100.00
1832;BME280;1680;48.106;11.708;2023-08-17T07:11:43;95675.97;;;22.87;100.00
1832;BME280;1680;48.106;11.708;2023-08-17T07:14:10;95686.53;;;23.10;100.00
1832;BME280;1680;48.106;11.708;2023-08-17T07:16:37;95681.41;;;23.27;100.00
1832;BME280;1680;48.106;11.708;2023-08-17T07:19:04;95685.38;;;23.30;100.00
1832;BME280;1680;48.106;11.708;2023-08-17T07:21:32;95681.91;;;23.29;100.00
1832;BME280;1680;48.106;11.708;2023-08-17T07:24:11;95678.91;;;23.44;100.00
1832;BME280;1680;48.106;11.708;2023-08-17T07:26:38;95649.28;;;23.27;100.00
1832;BME280;1680;48.106;11.708;2023-08-17T07:29:06;95682.19;;;23.54;100.00
1832;BME280;1680;48.106;11.708;2023-08-17T07:31:33;95687.72;;;23.71;100.00
1832;BME280;1680;48.106;11.708;2023-08-17T07:34:03;95682.38;;;23.71;100.00
1832;BME280;1680;48.106;11.708;2023-08-17T07:36:30;95687.13;;;23.74;100.00
1832;BME280;1680;48.106;11.708;2023-08-17T07:38:58;95692.88;;;23.81;98.96
1832;BME280;1680;48.106;11.708;2023-08-17T07:41:26;95673.34;;;23.81;98.66
1832;BME280;1680;48.106;11.708;2023-08-17T07:43:53;95693.28;;;23.88;98.13
1832;BME280;1680;48.106;11.708;2023-08-17T07:46:21;95689.28;;;23.99;100.00
1832;BME280;1680;48.106;11.708;2023-08-17T07:48:48;95690.28;;;24.25;98.37
1832;BME280;1680;48.106;11.708;2023-08-17T07:51:15;95684.56;;;24.40;97.91
1832;BME280;1680;48.106;11.708;2023-08-17T07:53:42;95687.41;;;24.57;93.74
1832;BME280;1680;48.106;11.708;2023-08-17T07:56:09;95684.47;;;24.67;96.28
1832;BME280;1680;48.106;11.708;2023-08-17T07:58:38;95681.91;;;24.62;94.16
1832;BME280;1680;48.106;11.708;2023-08-17T08:01:05;95680.44;;;24.78;94.33
1832;BME280;1680;48.106;11.708;2023-08-17T08:03:32;95681.16;;;24.92;94.95
1832;BME280;1680;48.106;11.708;2023-08-17T08:05:59;95677.97;;;24.90;93.26
1832;BME280;1680;48.106;11.708;2023-08-17T08:08:27;95663.78;;;24.98;95.90
1832;BME280;1680;48.106;11.708;2023-08-17T08:10:54;95671.84;;;25.20;95.85
1832;BME280;1680;48.106;11.708;2023-08-17T08:13:21;95673.53;;;25.16;91.21
1832;BME280;1680;48.106;11.708;2023-08-17T08:15:49;95668.66;;;25.18;90.23
1832;BME280;1680;48.106;11.708;2023-08-17T08:18:16;95681.09;;;25.44;87.46
1832;BME280;1680;48.106;11.708;2023-08-17T08:20:44;95669.91;;;25.59;90.04
1832;BME280;1680;48.106;11.708;2023-08-17T08:23:11;95686.53;;;25.69;84.81
1832;BME280;1680;48.106;11.708;2023-08-17T08:25:38;95676.56;;;25.70;82.89
1832;BME280;1680;48.106;11.708;2023-08-17T08:28:05;95679.47;;;25.90;81.79
1832;BME280;1680;48.106;11.708;2023-08-17T08:30:33;95674.75;;;26.04;81.26
1832;BME280;1680;48.106;11.708;2023-08-17T08:33:03;95674.25;;;26.02;81.10
1832;BME280;1680;48.106;11.708;2023-08-17T08:35:30;95673.31;;;26.15;86.35
1832;BME280;1680;48.106;11.708;2023-08-17T08:37:58;95689.63;;;26.10;80.56
1832;BME280;1680;48.106;11.708;2023-08-17T08:40:27;95677.94;;;26.23;80.75
1832;BME280;1680;48.106;11.708;2023-08-17T08:42:55;95673.03;;;26.25;78.64
1832;BME280;1680;48.106;11.708;2023-08-17T08:45:23;95681.13;;;26.51;81.69
1832;BME280;1680;48.106;11.708;2023-08-17T08:47:51;95676.84;;;26.58;79.73
1832;BME280;1680;48.106;11.708;2023-08-17T08:50:20;95671.75;;;26.65;83.55
1832;BME280;1680;48.106;11.708;2023-08-17T08:52:53;95674.91;;;26.67;82.83
1832;BME280;1680;48.106;11.708;2023-08-17T08:55:28;95672.97;;;26.76;82.90
1832;BME280;1680;48.106;11.708;2023-08-17T08:57:56;95665.56;;;26.81;79.57
1832;BME280;1680;48.106;11.708;2023-08-17T09:00:24;95667.91;;;26.91;79.75
1832;BME280;1680;48.106;11.708;2023-08-17T09:02:52;95667.41;;;26.98;80.88
1832;BME280;1680;48.106;11.708;2023-08-17T09:05:22;95668.50;;;27.14;78.61
1832;BME280;1680;48.106;11.708;2023-08-17T09:07:49;95664.19;;;27.21;79.19
1832;BME280;1680;48.106;11.708;2023-08-17T09:10:16;95669.13;;;27.48;76.82
1832;BME280;1680;48.106;11.708;2023-08-17T09:12:45;95675.59;;;27.56;78.76
1832;BME280;1680;48.106;11.708;2023-08-17T09:15:13;95661.59;;;27.62;75.14
1832;BME280;1680;48.106;11.708;2023-08-17T09:17:40;95669.72;;;27.54;72.65
1832;BME280;1680;48.106;11.708;2023-08-17T09:20:09;95662.31;;;27.42;74.47
1832;BME280;1680;48.106;11.708;2023-08-17T09:22:38;95670.38;;;27.51;75.81
1832;BME280;1680;48.106;11.708;2023-08-17T09:25:07;95651.28;;;27.64;78.92
1832;BME280;1680;48.106;11.708;2023-08-17T09:27:34;95652.69;;;27.99;73.53
1832;BME280;1680;48.106;11.708;2023-08-17T09:30:03;95656.84;;;27.88;70.35
1832;BME280;1680;48.106;11.708;2023-08-17T09:32:32;95662.28;;;28.08;77.72
1832;BME280;1680;48.106;11.708;2023-08-17T09:35:00;95651.63;;;28.12;71.24
1832;BME280;1680;48.106;11.708;2023-08-17T09:37:29;95651.16;;;28.10;73.02
1832;BME280;1680;48.106;11.708;2023-08-17T09:39:57;95641.16;;;28.10;74.46
1832;BME280;1680;48.106;11.708;2023-08-17T09:42:24;95654.06;;;28.25;75.91
1832;BME280;1680;48.106;11.708;2023-08-17T09:44:52;95649.78;;;28.45;73.86
1832;BME280;1680;48.106;11.708;2023-08-17T09:47:21;95643.06;;;28.51;70.59
1832;BME280;1680;48.106;11.708;2023-08-17T09:49:49;95652.34;;;28.41;67.94
1832;BME280;1680;48.106;11.708;2023-08-17T09:52:16;95644.97;;;28.50;65.54
1832;BME280;1680;48.106;11.708;2023-08-17T09:54:45;95643.19;;;28.54;68.19
1832;BME280;1680;48.106;11.708;2023-08-17T09:57:16;95646.69;;;28.55;66.46
1832;BME280;1680;48.106;11.708;2023-08-17T09:59:43;95646.41;;;28.68;65.51
1832;BME280;1680;48.106;11.708;2023-08-17T10:02:16;95645.56;;;28.88;67.20
1832;BME280;1680;48.106;11.708;2023-08-17T10:04:49;95643.66;;;28.88;65.75
1832;BME280;1680;48.106;11.708;2023-08-17T10:07:18;95639.03;;;28.89;64.76
1832;BME280;1680;48.106;11.708;2023-08-17T10:09:53;95631.41;;;29.03;67.02
1832;BME280;1680;48.106;11.708;2023-08-17T10:12:27;95636.59;;;29.08;64.78
1832;BME280;1680;48.106;11.708;2023-08-17T10:14:57;95633.44;;;29.18;65.75
1832;BME280;1680;48.106;11.708;2023-08-17T10:17:26;95633.91;;;29.20;65.20
1832;BME280;1680;48.106;11.708;2023-08-17T10:19:58;95627.38;;;29.33;65.20
1832;BME280;1680;48.106;11.708;2023-08-17T10:22:28;95637.34;;;29.53;62.46
1832;BME280;1680;48.106;11.708;2023-08-17T10:24:58;95634.41;;;29.58;65.28
1832;BME280;1680;48.106;11.708;2023-08-17T10:27:29;95630.31;;;29.75;65.85
1832;BME280;1680;48.106;11.708;2023-08-17T10:29:57;95624.81;;;29.72;64.50
1832;BME280;1680;48.106;11.708;2023-08-17T10:32:26;95611.88;;;29.54;65.07
1832;BME280;1680;48.106;11.708;2023-08-17T10:34:53;95627.97;;;29.62;66.26
1832;BME280;1680;48.106;11.708;2023-08-17T10:37:21;95621.88;;;29.53;65.56
1832;BME280;1680;48.106;11.708;2023-08-17T10:39:49;95632.38;;;29.66;65.50
1832;BME280;1680;48.106;11.708;2023-08-17T10:42:31;95630.13;;;29.68;64.01
1832;BME280;1680;48.106;11.708;2023-08-17T10:44:59;95623.78;;;29.88;64.34
1832;BME280;1680;48.106;11.708;2023-08-17T10:47:30;95627.47;;;29.84;64.67
1832;BME280;1680;48.106;11.708;2023-08-17T10:49:59;95621.94;;;29.92;64.24
1832;BME280;1680;48.106;11.708;2023-08-17T10:52:28;95631.25;;;29.67;64.68
1832;BME280;1680;48.106;11.708;2023-08-17T10:54:56;95627.19;;;29.73;65.20
1832;BME280;1680;48.106;11.708;2023-08-17T10:57:32;95624.00;;;29.95;62.51
1832;BME280;1680;48.106;11.708;2023-08-17T11:00:23;95624.19;;;29.90;63.27
1832;BME280;1680;48.106;11.708;2023-08-17T11:02:53;95611.56;;;30.06;62.32
1832;BME280;1680;48.106;11.708;2023-08-17T11:05:37;95627.78;;;30.18;61.74
1832;BME280;1680;48.106;11.708;2023-08-17T11:08:05;95617.59;;;30.27;62.88
1832;BME280;1680;48.106;11.708;2023-08-17T11:10:32;95627.88;;;30.49;62.21
1832;BME280;1680;48.106;11.708;2023-08-17T11:13:01;95618.19;;;30.60;60.52
1832;BME280;1680;48.106;11.708;2023-08-17T11:15:35;95617.56;;;30.67;60.84
1832;BME280;1680;48.106;11.708;2023-08-17T11:18:05;95606.66;;;30.63;61.02
1832;BME280;1680;48.106;11.708;2023-08-17T11:20:33;95608.16;;;30.76;62.84
1832;BME280;1680;48.106;11.708;2023-08-17T11:23:00;95618.56;;;30.74;65.33
1832;BME280;1680;48.106;11.708;2023-08-17T11:25:28;95614.81;;;30.51;64.71
1832;BME280;1680;48.106;11.708;2023-08-17T11:27:55;95607.19;;;30.84;65.44
1832;BME280;1680;48.106;11.708;2023-08-17T11:30:23;95611.25;;;30.90;62.30
1832;BME280;1680;48.106;11.708;2023-08-17T11:32:52;95611.41;;;30.97;65.47
1832;BME280;1680;48.106;11.708;2023-08-17T11:35:20;95603.81;;;30.87;61.79
1832;BME280;1680;48.106;11.708;2023-08-17T11:37:48;95608.84;;;30.73;64.00
1832;BME280;1680;48.106;11.708;2023-08-17T11:40:16;95590.56;;;30.70;61.98
1832;BME280;1680;48.106;11.708;2023-08-17T11:42:44;95595.91;;;30.67;63.83
1832;BME280;1680;48.106;11.708;2023-08-17T11:45:12;95602.09;;;30.67;63.91
1832;BME280;1680;48.106;11.708;2023-08-17T11:47:41;95598.78;;;30.73;62.00
1832;BME280;1680;48.106;11.708;2023-08-17T11:50:10;95600.03;;;30.76;62.52
1832;BME280;1680;48.106;11.708;2023-08-17T11:52:38;95591.25;;;30.67;63.68
1832;BME280;1680;48.106;11.708;2023-08-17T11:55:06;95590.16;;;30.83;66.71
1832;BME280;1680;48.106;11.708;2023-08-17T11:57:35;95588.97;;;31.12;63.02
1832;BME280;1680;48.106;11.708;2023-08-17T12:00:04;95583.09;;;31.10;62.30
1832;BME280;1680;48.106;11.708;2023-08-17T12:02:32;95584.94;;;31.21;63.28
1832;BME280;1680;48.106;11.708;2023-08-17T12:05:05;95585.53;;;31.46;62.72
1832;BME280;1680;48.106;11.708;2023-08-17T12:07:32;95579.41;;;31.49;60.24
1832;BME280;1680;48.106;11.708;2023-08-17T12:09:59;95576.44;;;31.54;61.28
1832;BME280;1680;48.106;11.708;2023-08-17T12:12:28;95573.13;;;31.60;58.94
1832;BME280;1680;48.106;11.708;2023-08-17T12:14:57;95576.34;;;31.50;58.88
1832;BME280;1680;48.106;11.708;2023-08-17T12:17:24;95578.03;;;31.39;59.85
1832;BME280;1680;48.106;11.708;2023-08-17T12:19:54;95572.53;;;31.36;58.98
1832;BME280;1680;48.106;11.708;2023-08-17T12:22:25;95572.16;;;31.37;56.81
1832;BME280;1680;48.106;11.708;2023-08-17T12:24:52;95566.41;;;31.23;61.83
1832;BME280;1680;48.106;11.708;2023-08-17T12:27:22;95560.91;;;31.20;57.94
1832;BME280;1680;48.106;11.708;2023-08-17T12:29:51;95567.44;;;31.34;59.65
1832;BME280;1680;48.106;11.708;2023-08-17T12:32:19;95552.28;;;31.64;59.69
1832;BME280;1680;48.106;11.708;2023-08-17T12:34:46;95556.78;;;31.75;58.69
1832;BME280;1680;48.106;11.708;2023-08-17T12:37:19;95533.69;;;31.81;56.39
1832;BME280;1680;48.106;11.708;2023-08-17T12:39:48;95543.09;;;32.06;55.99
1832;BME280;1680;48.106;11.708;2023-08-17T12:42:15;95542.69;;;32.04;54.08
1832;BME280;1680;48.106;11.708;2023-08-17T12:44:43;95539.81;;;31.78;53.50
1832;BME280;1680;48.106;11.708;2023-08-17T12:47:11;95534.97;;;31.69;54.43
1832;BME280;1680;48.106;11.708;2023-08-17T12:49:38;95524.84;;;31.35;54.42
1832;BME280;1680;48.106;11.708;2023-08-17T12:52:05;95523.72;;;31.20;53.91
1832;BME280;1680;48.106;11.708;2023-08-17T12:54:32;95533.19;;;31.11;54.79
1832;BME280;1680;48.106;11.708;2023-08-17T12:57:01;95527.06;;;30.98;54.57
1832;BME280;1680;48.106;11.708;2023-08-17T12:59:28;95519.78;;;31.02;54.80
1832;BME280;1680;48.106;11.708;2023-08-17T13:01:55;95531.63;;;31.10;54.63
1832;BME280;1680;48.106;11.708;2023-08-17T13:04:22;95518.25;;;31.17;55.33
1832;BME280;1680;48.106;11.708;2023-08-17T13:06:49;95523.44;;;31.41;53.88
1832;BME280;1680;48.106;11.708;2023-08-17T13:09:17;95522.81;;;31.63;52.75